Pauls Valley, OK

9:22 AM CDT on August 02, 2015 (GMT -0500)
Pauls Valley Municipal | | Change Station
CLOSE
Current Station
Airport
Location: Pauls Valley,
Elevation: 968 ft
Nearby Weather Stations

Elev 968 ft 34.71 °N, 97.22 °W | Updated 7 minutes ago

Overcast
Overcast
74 °F
Feels Like 74 °F
N
4
Wind Variable Wind from South

Today
High -- | Low -- °F
--% Chance of Precip.
Yesterday
High -- | Low -- °F
Precip. -- in
6:39 AM 8:30 PM
Waning Gibbous, 93% visible
Pressure 29.99 in
Visibility 10.0 miles
Clouds Overcast 8500 ft
Dew Point 66 °F
Humidity 74%
Rainfall 0.00 in
Snow Depth Not available.
UV 1 out of 12
Pollen 6.00 out of 12
Air Quality Not available.
Flu Activity Not available.
METAR KPVJ 021415Z AUTO 17003KT 10SM OVC085 24/19 A2999 RMK AO2 T02350187

More Conditions Fewer Conditions

Pressure 29.99 in
Visibility 10.0 miles
Clouds Overcast 8500 ft
Dew Point 66 °F
Humidity 74%
Rainfall 0.00 in
Snow Depth Not available.
UV 1 out of 12
Pollen 6.00 out of 12
Air Quality Not available.
Flu Activity Not available.
METAR KPVJ 021415Z AUTO 17003KT 10SM OVC085 24/19 A2999 RMK AO2 T02350187

More Conditions Fewer Conditions

10-Day Weather Forecast

×

Almanac

Astronomy

Aug. 02, 2015 Rise Set
Actual Time
Civil Twilight
Nautical Twilight
Astronomical Twilight
Moon
Length of Visible Light
Length of Day
Tomorrow will be .
, % of the Moon is Illuminated

Today's Extremes

State Highs State Lows

Community

WunderPhotos

Upload Photos

1,843,257 photos uploaded!

WunderBlogs® & News

Nearby

Air Quality

  Air Quality AQ Index Pollutant
Not available.

Snow Depth

Station Depth Elevation

Earthquake Activity

City Distance Mag. Time & Date
Minimum magnitude displayed is 2.5.

Coastal Water Temperatures

Place Temperature

Stations

Nearby Weather Stations

Station Location Temp. Windchill Dew Point Humidity Wind Precip. Elev Updated Type